<?xml version="1.0" encoding="UTF-8" standalone="no" ?>
<gpx xmlns="http://www.topografix.com/GPX/1/1" xmlns:xsi="http://www.w3.org/2001/XMLSchema-instance" xsi:schemaLocation="http://www.topografix.com/GPX/1/1 http://www.topografix.com/GPX/1/1/gpx.xsd" version="1.1" creator="VisuGPX - https://www.visugpx.com">
  <metadata>
    <name>Run de récup</name>
    <desc><![CDATA[Ça fait du biiiieng 🤤]]></desc>
  </metadata>
  <trk>
    <name><![CDATA[Run de récup_1]]></name>
    <trkseg>
      <trkpt lat="48.71143" lon="7.16271">
        <ele>317</ele>
        <time>2023-10-15T14:56:37Z</time>
      </trkpt>
      <trkpt lat="48.71137" lon="7.16261">
        <ele>317.3</ele>
        <time>2023-10-15T14:56:39Z</time>
      </trkpt>
      <trkpt lat="48.71122" lon="7.16246">
        <ele>317.8</ele>
        <time>2023-10-15T14:56:46Z</time>
      </trkpt>
      <trkpt lat="48.71107" lon="7.16225">
        <ele>318.1</ele>
        <time>2023-10-15T14:56:54Z</time>
      </trkpt>
      <trkpt lat="48.71091" lon="7.16209">
        <ele>318.2</ele>
        <time>2023-10-15T14:57:01Z</time>
      </trkpt>
      <trkpt lat="48.71086" lon="7.1618">
        <ele>317.2</ele>
        <time>2023-10-15T14:57:09Z</time>
      </trkpt>
      <trkpt lat="48.7109" lon="7.1615">
        <ele>316.4</ele>
        <time>2023-10-15T14:57:16Z</time>
      </trkpt>
      <trkpt lat="48.71093" lon="7.16123">
        <ele>315.9</ele>
        <time>2023-10-15T14:57:22Z</time>
      </trkpt>
      <trkpt lat="48.711" lon="7.16101">
        <ele>315.9</ele>
        <time>2023-10-15T14:57:27Z</time>
      </trkpt>
      <trkpt lat="48.71106" lon="7.161">
        <ele>315.9</ele>
        <time>2023-10-15T14:57:29Z</time>
      </trkpt>
      <trkpt lat="48.71126" lon="7.16105">
        <ele>315.8</ele>
        <time>2023-10-15T14:57:34Z</time>
      </trkpt>
      <trkpt lat="48.71146" lon="7.16111">
        <ele>316</ele>
        <time>2023-10-15T14:57:40Z</time>
      </trkpt>
      <trkpt lat="48.71165" lon="7.16106">
        <ele>317.3</ele>
        <time>2023-10-15T14:57:47Z</time>
      </trkpt>
      <trkpt lat="48.71183" lon="7.16102">
        <ele>318.7</ele>
        <time>2023-10-15T14:57:54Z</time>
      </trkpt>
      <trkpt lat="48.71203" lon="7.16112">
        <ele>319.5</ele>
        <time>2023-10-15T14:58:01Z</time>
      </trkpt>
      <trkpt lat="48.71222" lon="7.16125">
        <ele>319.9</ele>
        <time>2023-10-15T14:58:08Z</time>
      </trkpt>
      <trkpt lat="48.71239" lon="7.16139">
        <ele>320</ele>
        <time>2023-10-15T14:58:15Z</time>
      </trkpt>
      <trkpt lat="48.71258" lon="7.16152">
        <ele>320.1</ele>
        <time>2023-10-15T14:58:22Z</time>
      </trkpt>
      <trkpt lat="48.71277" lon="7.16164">
        <ele>320.7</ele>
        <time>2023-10-15T14:58:29Z</time>
      </trkpt>
      <trkpt lat="48.71293" lon="7.16181">
        <ele>321.3</ele>
        <time>2023-10-15T14:58:35Z</time>
      </trkpt>
      <trkpt lat="48.71312" lon="7.16186">
        <ele>321.8</ele>
        <time>2023-10-15T14:58:42Z</time>
      </trkpt>
      <trkpt lat="48.71325" lon="7.1621">
        <ele>319.4</ele>
        <time>2023-10-15T14:58:48Z</time>
      </trkpt>
      <trkpt lat="48.71343" lon="7.16225">
        <ele>317.5</ele>
        <time>2023-10-15T14:58:54Z</time>
      </trkpt>
      <trkpt lat="48.71361" lon="7.16243">
        <ele>316.3</ele>
        <time>2023-10-15T14:59:01Z</time>
      </trkpt>
      <trkpt lat="48.71379" lon="7.16255">
        <ele>315.1</ele>
        <time>2023-10-15T14:59:07Z</time>
      </trkpt>
      <trkpt lat="48.71396" lon="7.16264">
        <ele>313.7</ele>
        <time>2023-10-15T14:59:13Z</time>
      </trkpt>
      <trkpt lat="48.71414" lon="7.16279">
        <ele>311.8</ele>
        <time>2023-10-15T14:59:20Z</time>
      </trkpt>
      <trkpt lat="48.71432" lon="7.1629">
        <ele>310.9</ele>
        <time>2023-10-15T14:59:26Z</time>
      </trkpt>
      <trkpt lat="48.71452" lon="7.16292">
        <ele>310.3</ele>
        <time>2023-10-15T14:59:33Z</time>
      </trkpt>
      <trkpt lat="48.71472" lon="7.16292">
        <ele>309.7</ele>
        <time>2023-10-15T14:59:40Z</time>
      </trkpt>
      <trkpt lat="48.71493" lon="7.16296">
        <ele>309</ele>
        <time>2023-10-15T14:59:47Z</time>
      </trkpt>
      <trkpt lat="48.71512" lon="7.16297">
        <ele>308.5</ele>
        <time>2023-10-15T14:59:54Z</time>
      </trkpt>
      <trkpt lat="48.7153" lon="7.16298">
        <ele>308</ele>
        <time>2023-10-15T15:00:00Z</time>
      </trkpt>
      <trkpt lat="48.71549" lon="7.16302">
        <ele>307.6</ele>
        <time>2023-10-15T15:00:06Z</time>
      </trkpt>
      <trkpt lat="48.71568" lon="7.16303">
        <ele>307.2</ele>
        <time>2023-10-15T15:00:12Z</time>
      </trkpt>
      <trkpt lat="48.71586" lon="7.1631">
        <ele>306.5</ele>
        <time>2023-10-15T15:00:18Z</time>
      </trkpt>
      <trkpt lat="48.71604" lon="7.16314">
        <ele>305.4</ele>
        <time>2023-10-15T15:00:24Z</time>
      </trkpt>
      <trkpt lat="48.71623" lon="7.1632">
        <ele>305</ele>
        <time>2023-10-15T15:00:30Z</time>
      </trkpt>
      <trkpt lat="48.71642" lon="7.16325">
        <ele>304.5</ele>
        <time>2023-10-15T15:00:36Z</time>
      </trkpt>
      <trkpt lat="48.71663" lon="7.16327">
        <ele>303.7</ele>
        <time>2023-10-15T15:00:42Z</time>
      </trkpt>
      <trkpt lat="48.71683" lon="7.16326">
        <ele>302.9</ele>
        <time>2023-10-15T15:00:48Z</time>
      </trkpt>
      <trkpt lat="48.71702" lon="7.16325">
        <ele>302.4</ele>
        <time>2023-10-15T15:00:54Z</time>
      </trkpt>
      <trkpt lat="48.7172" lon="7.1632">
        <ele>301.9</ele>
        <time>2023-10-15T15:01:00Z</time>
      </trkpt>
      <trkpt lat="48.71741" lon="7.16311">
        <ele>301.2</ele>
        <time>2023-10-15T15:01:07Z</time>
      </trkpt>
      <trkpt lat="48.71758" lon="7.16296">
        <ele>301.1</ele>
        <time>2023-10-15T15:01:13Z</time>
      </trkpt>
      <trkpt lat="48.71774" lon="7.16283">
        <ele>301.5</ele>
        <time>2023-10-15T15:01:19Z</time>
      </trkpt>
      <trkpt lat="48.71795" lon="7.16285">
        <ele>300.3</ele>
        <time>2023-10-15T15:01:26Z</time>
      </trkpt>
      <trkpt lat="48.71814" lon="7.16298">
        <ele>299.4</ele>
        <time>2023-10-15T15:01:32Z</time>
      </trkpt>
      <trkpt lat="48.71832" lon="7.16314">
        <ele>298.5</ele>
        <time>2023-10-15T15:01:38Z</time>
      </trkpt>
      <trkpt lat="48.71849" lon="7.16327">
        <ele>297.9</ele>
        <time>2023-10-15T15:01:44Z</time>
      </trkpt>
      <trkpt lat="48.71866" lon="7.1634">
        <ele>298</ele>
        <time>2023-10-15T15:01:50Z</time>
      </trkpt>
      <trkpt lat="48.71883" lon="7.16357">
        <ele>298.1</ele>
        <time>2023-10-15T15:01:56Z</time>
      </trkpt>
      <trkpt lat="48.71899" lon="7.16376">
        <ele>298.1</ele>
        <time>2023-10-15T15:02:03Z</time>
      </trkpt>
      <trkpt lat="48.71915" lon="7.16391">
        <ele>298.2</ele>
        <time>2023-10-15T15:02:09Z</time>
      </trkpt>
      <trkpt lat="48.71934" lon="7.16403">
        <ele>298.4</ele>
        <time>2023-10-15T15:02:16Z</time>
      </trkpt>
      <trkpt lat="48.71952" lon="7.16406">
        <ele>298.9</ele>
        <time>2023-10-15T15:02:22Z</time>
      </trkpt>
      <trkpt lat="48.71972" lon="7.16404">
        <ele>299.5</ele>
        <time>2023-10-15T15:02:29Z</time>
      </trkpt>
      <trkpt lat="48.71991" lon="7.16405">
        <ele>300.2</ele>
        <time>2023-10-15T15:02:35Z</time>
      </trkpt>
      <trkpt lat="48.72011" lon="7.16414">
        <ele>301.1</ele>
        <time>2023-10-15T15:02:41Z</time>
      </trkpt>
      <trkpt lat="48.72029" lon="7.16419">
        <ele>302.8</ele>
        <time>2023-10-15T15:02:48Z</time>
      </trkpt>
      <trkpt lat="48.72048" lon="7.16421">
        <ele>305</ele>
        <time>2023-10-15T15:02:56Z</time>
      </trkpt>
      <trkpt lat="48.72066" lon="7.1642">
        <ele>307.3</ele>
        <time>2023-10-15T15:03:04Z</time>
      </trkpt>
      <trkpt lat="48.72084" lon="7.16421">
        <ele>309.7</ele>
        <time>2023-10-15T15:03:12Z</time>
      </trkpt>
      <trkpt lat="48.72102" lon="7.16407">
        <ele>312.9</ele>
        <time>2023-10-15T15:03:22Z</time>
      </trkpt>
      <trkpt lat="48.72117" lon="7.16388">
        <ele>315.9</ele>
        <time>2023-10-15T15:03:32Z</time>
      </trkpt>
      <trkpt lat="48.72133" lon="7.16373">
        <ele>318.5</ele>
        <time>2023-10-15T15:03:40Z</time>
      </trkpt>
      <trkpt lat="48.72148" lon="7.16355">
        <ele>319.3</ele>
        <time>2023-10-15T15:03:49Z</time>
      </trkpt>
      <trkpt lat="48.72162" lon="7.16336">
        <ele>321</ele>
        <time>2023-10-15T15:03:58Z</time>
      </trkpt>
      <trkpt lat="48.72176" lon="7.16313">
        <ele>322.9</ele>
        <time>2023-10-15T15:04:07Z</time>
      </trkpt>
      <trkpt lat="48.72184" lon="7.16286">
        <ele>324.3</ele>
        <time>2023-10-15T15:04:14Z</time>
      </trkpt>
      <trkpt lat="48.72193" lon="7.16259">
        <ele>325.3</ele>
        <time>2023-10-15T15:04:21Z</time>
      </trkpt>
      <trkpt lat="48.72203" lon="7.16234">
        <ele>326.4</ele>
        <time>2023-10-15T15:04:28Z</time>
      </trkpt>
      <trkpt lat="48.72215" lon="7.16209">
        <ele>327.2</ele>
        <time>2023-10-15T15:04:35Z</time>
      </trkpt>
      <trkpt lat="48.72227" lon="7.16188">
        <ele>327.9</ele>
        <time>2023-10-15T15:04:41Z</time>
      </trkpt>
      <trkpt lat="48.72239" lon="7.16167">
        <ele>328.4</ele>
        <time>2023-10-15T15:04:47Z</time>
      </trkpt>
      <trkpt lat="48.72251" lon="7.16146">
        <ele>328.4</ele>
        <time>2023-10-15T15:04:53Z</time>
      </trkpt>
      <trkpt lat="48.72264" lon="7.16124">
        <ele>328.3</ele>
        <time>2023-10-15T15:04:59Z</time>
      </trkpt>
      <trkpt lat="48.72279" lon="7.16104">
        <ele>327.4</ele>
        <time>2023-10-15T15:05:05Z</time>
      </trkpt>
      <trkpt lat="48.72293" lon="7.16082">
        <ele>326.6</ele>
        <time>2023-10-15T15:05:11Z</time>
      </trkpt>
      <trkpt lat="48.72309" lon="7.16062">
        <ele>325.8</ele>
        <time>2023-10-15T15:05:17Z</time>
      </trkpt>
      <trkpt lat="48.72326" lon="7.16046">
        <ele>325.4</ele>
        <time>2023-10-15T15:05:23Z</time>
      </trkpt>
      <trkpt lat="48.72345" lon="7.16033">
        <ele>325.1</ele>
        <time>2023-10-15T15:05:29Z</time>
      </trkpt>
      <trkpt lat="48.72363" lon="7.1602">
        <ele>324.8</ele>
        <time>2023-10-15T15:05:35Z</time>
      </trkpt>
      <trkpt lat="48.7238" lon="7.1601">
        <ele>324.6</ele>
        <time>2023-10-15T15:05:41Z</time>
      </trkpt>
      <trkpt lat="48.72398" lon="7.15996">
        <ele>324.4</ele>
        <time>2023-10-15T15:05:47Z</time>
      </trkpt>
      <trkpt lat="48.72417" lon="7.15987">
        <ele>324.3</ele>
        <time>2023-10-15T15:05:53Z</time>
      </trkpt>
      <trkpt lat="48.72432" lon="7.1597">
        <ele>324.6</ele>
        <time>2023-10-15T15:06:00Z</time>
      </trkpt>
      <trkpt lat="48.72435" lon="7.15942">
        <ele>325</ele>
        <time>2023-10-15T15:06:06Z</time>
      </trkpt>
      <trkpt lat="48.72435" lon="7.15913">
        <ele>325.5</ele>
        <time>2023-10-15T15:06:12Z</time>
      </trkpt>
      <trkpt lat="48.72436" lon="7.15885">
        <ele>325.8</ele>
        <time>2023-10-15T15:06:18Z</time>
      </trkpt>
      <trkpt lat="48.72437" lon="7.15856">
        <ele>325.8</ele>
        <time>2023-10-15T15:06:24Z</time>
      </trkpt>
      <trkpt lat="48.72439" lon="7.15828">
        <ele>325.6</ele>
        <time>2023-10-15T15:06:30Z</time>
      </trkpt>
      <trkpt lat="48.72441" lon="7.15798">
        <ele>325.3</ele>
        <time>2023-10-15T15:06:36Z</time>
      </trkpt>
      <trkpt lat="48.72442" lon="7.15769">
        <ele>324.9</ele>
        <time>2023-10-15T15:06:42Z</time>
      </trkpt>
      <trkpt lat="48.72444" lon="7.15741">
        <ele>324.4</ele>
        <time>2023-10-15T15:06:48Z</time>
      </trkpt>
      <trkpt lat="48.72444" lon="7.15712">
        <ele>323.9</ele>
        <time>2023-10-15T15:06:54Z</time>
      </trkpt>
      <trkpt lat="48.72443" lon="7.15682">
        <ele>323.3</ele>
        <time>2023-10-15T15:07:00Z</time>
      </trkpt>
      <trkpt lat="48.72444" lon="7.15654">
        <ele>322.8</ele>
        <time>2023-10-15T15:07:05Z</time>
      </trkpt>
      <trkpt lat="48.72445" lon="7.15621">
        <ele>322.1</ele>
        <time>2023-10-15T15:07:11Z</time>
      </trkpt>
      <trkpt lat="48.72444" lon="7.1559">
        <ele>321.3</ele>
        <time>2023-10-15T15:07:17Z</time>
      </trkpt>
      <trkpt lat="48.72445" lon="7.1556">
        <ele>320.6</ele>
        <time>2023-10-15T15:07:23Z</time>
      </trkpt>
      <trkpt lat="48.72449" lon="7.15529">
        <ele>319.8</ele>
        <time>2023-10-15T15:07:29Z</time>
      </trkpt>
      <trkpt lat="48.72452" lon="7.15499">
        <ele>319</ele>
        <time>2023-10-15T15:07:35Z</time>
      </trkpt>
      <trkpt lat="48.72453" lon="7.15468">
        <ele>318.1</ele>
        <time>2023-10-15T15:07:41Z</time>
      </trkpt>
      <trkpt lat="48.72455" lon="7.15439">
        <ele>317.3</ele>
        <time>2023-10-15T15:07:47Z</time>
      </trkpt>
      <trkpt lat="48.72457" lon="7.15408">
        <ele>316.4</ele>
        <time>2023-10-15T15:07:53Z</time>
      </trkpt>
      <trkpt lat="48.72459" lon="7.15378">
        <ele>315.5</ele>
        <time>2023-10-15T15:07:59Z</time>
      </trkpt>
      <trkpt lat="48.72461" lon="7.15348">
        <ele>314.5</ele>
        <time>2023-10-15T15:08:05Z</time>
      </trkpt>
      <trkpt lat="48.72462" lon="7.15316">
        <ele>313.6</ele>
        <time>2023-10-15T15:08:11Z</time>
      </trkpt>
      <trkpt lat="48.72464" lon="7.15285">
        <ele>312.8</ele>
        <time>2023-10-15T15:08:17Z</time>
      </trkpt>
      <trkpt lat="48.72464" lon="7.15255">
        <ele>312.1</ele>
        <time>2023-10-15T15:08:23Z</time>
      </trkpt>
      <trkpt lat="48.72466" lon="7.15226">
        <ele>311.3</ele>
        <time>2023-10-15T15:08:29Z</time>
      </trkpt>
      <trkpt lat="48.72467" lon="7.15198">
        <ele>310.6</ele>
        <time>2023-10-15T15:08:35Z</time>
      </trkpt>
      <trkpt lat="48.72467" lon="7.1517">
        <ele>309.9</ele>
        <time>2023-10-15T15:08:41Z</time>
      </trkpt>
      <trkpt lat="48.72468" lon="7.15142">
        <ele>309.2</ele>
        <time>2023-10-15T15:08:47Z</time>
      </trkpt>
      <trkpt lat="48.7247" lon="7.15114">
        <ele>308.5</ele>
        <time>2023-10-15T15:08:53Z</time>
      </trkpt>
      <trkpt lat="48.7247" lon="7.15083">
        <ele>307.5</ele>
        <time>2023-10-15T15:08:59Z</time>
      </trkpt>
      <trkpt lat="48.7247" lon="7.15055">
        <ele>306.7</ele>
        <time>2023-10-15T15:09:04Z</time>
      </trkpt>
      <trkpt lat="48.7247" lon="7.15028">
        <ele>305.9</ele>
        <time>2023-10-15T15:09:09Z</time>
      </trkpt>
      <trkpt lat="48.72474" lon="7.14998">
        <ele>304.9</ele>
        <time>2023-10-15T15:09:15Z</time>
      </trkpt>
      <trkpt lat="48.72476" lon="7.14967">
        <ele>303.9</ele>
        <time>2023-10-15T15:09:21Z</time>
      </trkpt>
      <trkpt lat="48.72477" lon="7.14939">
        <ele>303</ele>
        <time>2023-10-15T15:09:26Z</time>
      </trkpt>
      <trkpt lat="48.72479" lon="7.14908">
        <ele>302</ele>
        <time>2023-10-15T15:09:32Z</time>
      </trkpt>
      <trkpt lat="48.7248" lon="7.14876">
        <ele>301.1</ele>
        <time>2023-10-15T15:09:38Z</time>
      </trkpt>
      <trkpt lat="48.72481" lon="7.14848">
        <ele>300.3</ele>
        <time>2023-10-15T15:09:43Z</time>
      </trkpt>
      <trkpt lat="48.72482" lon="7.14816">
        <ele>299.5</ele>
        <time>2023-10-15T15:09:49Z</time>
      </trkpt>
      <trkpt lat="48.72483" lon="7.14787">
        <ele>298.8</ele>
        <time>2023-10-15T15:09:54Z</time>
      </trkpt>
      <trkpt lat="48.72485" lon="7.14759">
        <ele>298.2</ele>
        <time>2023-10-15T15:09:59Z</time>
      </trkpt>
      <trkpt lat="48.72487" lon="7.14732">
        <ele>297.5</ele>
        <time>2023-10-15T15:10:04Z</time>
      </trkpt>
      <trkpt lat="48.7249" lon="7.147">
        <ele>296.7</ele>
        <time>2023-10-15T15:10:10Z</time>
      </trkpt>
      <trkpt lat="48.72493" lon="7.14673">
        <ele>296</ele>
        <time>2023-10-15T15:10:15Z</time>
      </trkpt>
      <trkpt lat="48.72494" lon="7.14646">
        <ele>295.3</ele>
        <time>2023-10-15T15:10:20Z</time>
      </trkpt>
      <trkpt lat="48.72495" lon="7.14616">
        <ele>294.5</ele>
        <time>2023-10-15T15:10:26Z</time>
      </trkpt>
      <trkpt lat="48.72497" lon="7.14588">
        <ele>293.8</ele>
        <time>2023-10-15T15:10:32Z</time>
      </trkpt>
      <trkpt lat="48.72498" lon="7.14557">
        <ele>293.1</ele>
        <time>2023-10-15T15:10:38Z</time>
      </trkpt>
      <trkpt lat="48.72498" lon="7.14525">
        <ele>292.4</ele>
        <time>2023-10-15T15:10:44Z</time>
      </trkpt>
      <trkpt lat="48.72488" lon="7.14498">
        <ele>292.2</ele>
        <time>2023-10-15T15:10:50Z</time>
      </trkpt>
      <trkpt lat="48.72477" lon="7.14472">
        <ele>292</ele>
        <time>2023-10-15T15:10:56Z</time>
      </trkpt>
      <trkpt lat="48.72464" lon="7.14449">
        <ele>291.8</ele>
        <time>2023-10-15T15:11:02Z</time>
      </trkpt>
      <trkpt lat="48.7245" lon="7.14426">
        <ele>291.5</ele>
        <time>2023-10-15T15:11:08Z</time>
      </trkpt>
      <trkpt lat="48.72436" lon="7.14404">
        <ele>291.2</ele>
        <time>2023-10-15T15:11:14Z</time>
      </trkpt>
      <trkpt lat="48.72424" lon="7.14383">
        <ele>290.9</ele>
        <time>2023-10-15T15:11:20Z</time>
      </trkpt>
      <trkpt lat="48.72413" lon="7.14358">
        <ele>290.5</ele>
        <time>2023-10-15T15:11:27Z</time>
      </trkpt>
      <trkpt lat="48.724" lon="7.14337">
        <ele>290.2</ele>
        <time>2023-10-15T15:11:33Z</time>
      </trkpt>
      <trkpt lat="48.72392" lon="7.14309">
        <ele>289.9</ele>
        <time>2023-10-15T15:11:39Z</time>
      </trkpt>
      <trkpt lat="48.72402" lon="7.14286">
        <ele>289.6</ele>
        <time>2023-10-15T15:11:44Z</time>
      </trkpt>
      <trkpt lat="48.72415" lon="7.14265">
        <ele>289.1</ele>
        <time>2023-10-15T15:11:49Z</time>
      </trkpt>
      <trkpt lat="48.72429" lon="7.14244">
        <ele>288.7</ele>
        <time>2023-10-15T15:11:55Z</time>
      </trkpt>
      <trkpt lat="48.72443" lon="7.14223">
        <ele>288.3</ele>
        <time>2023-10-15T15:12:01Z</time>
      </trkpt>
      <trkpt lat="48.72454" lon="7.142">
        <ele>288</ele>
        <time>2023-10-15T15:12:07Z</time>
      </trkpt>
      <trkpt lat="48.72464" lon="7.14177">
        <ele>287.7</ele>
        <time>2023-10-15T15:12:13Z</time>
      </trkpt>
      <trkpt lat="48.72473" lon="7.1415">
        <ele>287.3</ele>
        <time>2023-10-15T15:12:19Z</time>
      </trkpt>
      <trkpt lat="48.72481" lon="7.14122">
        <ele>286.9</ele>
        <time>2023-10-15T15:12:25Z</time>
      </trkpt>
      <trkpt lat="48.72482" lon="7.1409">
        <ele>286.4</ele>
        <time>2023-10-15T15:12:31Z</time>
      </trkpt>
      <trkpt lat="48.72479" lon="7.14059">
        <ele>286.1</ele>
        <time>2023-10-15T15:12:37Z</time>
      </trkpt>
      <trkpt lat="48.72475" lon="7.14031">
        <ele>285.9</ele>
        <time>2023-10-15T15:12:43Z</time>
      </trkpt>
      <trkpt lat="48.72467" lon="7.14007">
        <ele>285.7</ele>
        <time>2023-10-15T15:12:48Z</time>
      </trkpt>
      <trkpt lat="48.72456" lon="7.13985">
        <ele>285.4</ele>
        <time>2023-10-15T15:12:53Z</time>
      </trkpt>
      <trkpt lat="48.72445" lon="7.13959">
        <ele>285.2</ele>
        <time>2023-10-15T15:12:59Z</time>
      </trkpt>
      <trkpt lat="48.72434" lon="7.13933">
        <ele>285</ele>
        <time>2023-10-15T15:13:05Z</time>
      </trkpt>
      <trkpt lat="48.72422" lon="7.13909">
        <ele>284.9</ele>
        <time>2023-10-15T15:13:11Z</time>
      </trkpt>
      <trkpt lat="48.72412" lon="7.13884">
        <ele>284.9</ele>
        <time>2023-10-15T15:13:17Z</time>
      </trkpt>
      <trkpt lat="48.72406" lon="7.13858">
        <ele>284.9</ele>
        <time>2023-10-15T15:13:23Z</time>
      </trkpt>
      <trkpt lat="48.72399" lon="7.13831">
        <ele>284.9</ele>
        <time>2023-10-15T15:13:29Z</time>
      </trkpt>
      <trkpt lat="48.72392" lon="7.13805">
        <ele>284.8</ele>
        <time>2023-10-15T15:13:35Z</time>
      </trkpt>
      <trkpt lat="48.72384" lon="7.1378">
        <ele>284.7</ele>
        <time>2023-10-15T15:13:41Z</time>
      </trkpt>
      <trkpt lat="48.72375" lon="7.13754">
        <ele>284.6</ele>
        <time>2023-10-15T15:13:47Z</time>
      </trkpt>
      <trkpt lat="48.72366" lon="7.13728">
        <ele>284.5</ele>
        <time>2023-10-15T15:13:53Z</time>
      </trkpt>
      <trkpt lat="48.72361" lon="7.137">
        <ele>284.5</ele>
        <time>2023-10-15T15:13:59Z</time>
      </trkpt>
      <trkpt lat="48.72358" lon="7.1367">
        <ele>284.5</ele>
        <time>2023-10-15T15:14:05Z</time>
      </trkpt>
      <trkpt lat="48.72354" lon="7.13641">
        <ele>284.6</ele>
        <time>2023-10-15T15:14:11Z</time>
      </trkpt>
      <trkpt lat="48.72351" lon="7.13612">
        <ele>284.6</ele>
        <time>2023-10-15T15:14:17Z</time>
      </trkpt>
      <trkpt lat="48.72347" lon="7.13583">
        <ele>284.7</ele>
        <time>2023-10-15T15:14:23Z</time>
      </trkpt>
      <trkpt lat="48.72346" lon="7.13555">
        <ele>284.9</ele>
        <time>2023-10-15T15:14:29Z</time>
      </trkpt>
      <trkpt lat="48.7235" lon="7.13524">
        <ele>285.2</ele>
        <time>2023-10-15T15:14:36Z</time>
      </trkpt>
      <trkpt lat="48.72353" lon="7.13496">
        <ele>285.5</ele>
        <time>2023-10-15T15:14:42Z</time>
      </trkpt>
      <trkpt lat="48.72356" lon="7.13469">
        <ele>285.8</ele>
        <time>2023-10-15T15:14:48Z</time>
      </trkpt>
      <trkpt lat="48.72356" lon="7.13441">
        <ele>286</ele>
        <time>2023-10-15T15:14:54Z</time>
      </trkpt>
      <trkpt lat="48.72349" lon="7.13413">
        <ele>286.4</ele>
        <time>2023-10-15T15:15:00Z</time>
      </trkpt>
      <trkpt lat="48.72351" lon="7.13384">
        <ele>286.9</ele>
        <time>2023-10-15T15:15:06Z</time>
      </trkpt>
      <trkpt lat="48.72358" lon="7.13355">
        <ele>287.9</ele>
        <time>2023-10-15T15:15:12Z</time>
      </trkpt>
      <trkpt lat="48.72365" lon="7.13325">
        <ele>289</ele>
        <time>2023-10-15T15:15:19Z</time>
      </trkpt>
      <trkpt lat="48.72368" lon="7.13296">
        <ele>289.9</ele>
        <time>2023-10-15T15:15:25Z</time>
      </trkpt>
      <trkpt lat="48.72364" lon="7.13268">
        <ele>290.7</ele>
        <time>2023-10-15T15:15:31Z</time>
      </trkpt>
      <trkpt lat="48.72353" lon="7.13246">
        <ele>291.3</ele>
        <time>2023-10-15T15:15:37Z</time>
      </trkpt>
      <trkpt lat="48.7234" lon="7.13226">
        <ele>291.7</ele>
        <time>2023-10-15T15:15:43Z</time>
      </trkpt>
      <trkpt lat="48.72329" lon="7.132">
        <ele>292</ele>
        <time>2023-10-15T15:15:50Z</time>
      </trkpt>
      <trkpt lat="48.72317" lon="7.13174">
        <ele>292</ele>
        <time>2023-10-15T15:15:56Z</time>
      </trkpt>
      <trkpt lat="48.72305" lon="7.13149">
        <ele>291.8</ele>
        <time>2023-10-15T15:16:02Z</time>
      </trkpt>
      <trkpt lat="48.72294" lon="7.13125">
        <ele>291.5</ele>
        <time>2023-10-15T15:16:08Z</time>
      </trkpt>
      <trkpt lat="48.72283" lon="7.13101">
        <ele>291</ele>
        <time>2023-10-15T15:16:14Z</time>
      </trkpt>
      <trkpt lat="48.7227" lon="7.13078">
        <ele>290.4</ele>
        <time>2023-10-15T15:16:20Z</time>
      </trkpt>
      <trkpt lat="48.72257" lon="7.13055">
        <ele>289.8</ele>
        <time>2023-10-15T15:16:26Z</time>
      </trkpt>
      <trkpt lat="48.72246" lon="7.13029">
        <ele>289.1</ele>
        <time>2023-10-15T15:16:32Z</time>
      </trkpt>
      <trkpt lat="48.72236" lon="7.13002">
        <ele>288.3</ele>
        <time>2023-10-15T15:16:38Z</time>
      </trkpt>
      <trkpt lat="48.72225" lon="7.1298">
        <ele>287.7</ele>
        <time>2023-10-15T15:16:43Z</time>
      </trkpt>
      <trkpt lat="48.72213" lon="7.12954">
        <ele>286.8</ele>
        <time>2023-10-15T15:16:49Z</time>
      </trkpt>
      <trkpt lat="48.722" lon="7.1293">
        <ele>285.9</ele>
        <time>2023-10-15T15:16:55Z</time>
      </trkpt>
      <trkpt lat="48.72185" lon="7.12911">
        <ele>285</ele>
        <time>2023-10-15T15:17:00Z</time>
      </trkpt>
      <trkpt lat="48.72169" lon="7.12897">
        <ele>284.3</ele>
        <time>2023-10-15T15:17:05Z</time>
      </trkpt>
      <trkpt lat="48.72151" lon="7.12891">
        <ele>284.1</ele>
        <time>2023-10-15T15:17:11Z</time>
      </trkpt>
      <trkpt lat="48.72133" lon="7.12891">
        <ele>284</ele>
        <time>2023-10-15T15:17:18Z</time>
      </trkpt>
      <trkpt lat="48.72112" lon="7.12887">
        <ele>283.9</ele>
        <time>2023-10-15T15:17:25Z</time>
      </trkpt>
      <trkpt lat="48.72095" lon="7.12875">
        <ele>283.7</ele>
        <time>2023-10-15T15:17:31Z</time>
      </trkpt>
      <trkpt lat="48.72081" lon="7.12857">
        <ele>283.5</ele>
        <time>2023-10-15T15:17:36Z</time>
      </trkpt>
      <trkpt lat="48.72066" lon="7.1284">
        <ele>283.2</ele>
        <time>2023-10-15T15:17:41Z</time>
      </trkpt>
      <trkpt lat="48.72053" lon="7.12816">
        <ele>282.9</ele>
        <time>2023-10-15T15:17:47Z</time>
      </trkpt>
      <trkpt lat="48.72045" lon="7.12786">
        <ele>282.6</ele>
        <time>2023-10-15T15:17:53Z</time>
      </trkpt>
      <trkpt lat="48.7204" lon="7.12755">
        <ele>282.4</ele>
        <time>2023-10-15T15:17:59Z</time>
      </trkpt>
      <trkpt lat="48.72035" lon="7.12729">
        <ele>282.1</ele>
        <time>2023-10-15T15:18:04Z</time>
      </trkpt>
      <trkpt lat="48.72032" lon="7.127">
        <ele>281.7</ele>
        <time>2023-10-15T15:18:10Z</time>
      </trkpt>
      <trkpt lat="48.72029" lon="7.1267">
        <ele>281.3</ele>
        <time>2023-10-15T15:18:16Z</time>
      </trkpt>
      <trkpt lat="48.72026" lon="7.12641">
        <ele>280.8</ele>
        <time>2023-10-15T15:18:22Z</time>
      </trkpt>
      <trkpt lat="48.72023" lon="7.12613">
        <ele>280.3</ele>
        <time>2023-10-15T15:18:28Z</time>
      </trkpt>
      <trkpt lat="48.72021" lon="7.12585">
        <ele>279.6</ele>
        <time>2023-10-15T15:18:34Z</time>
      </trkpt>
      <trkpt lat="48.72017" lon="7.12558">
        <ele>278.9</ele>
        <time>2023-10-15T15:18:39Z</time>
      </trkpt>
      <trkpt lat="48.72015" lon="7.12528">
        <ele>278.2</ele>
        <time>2023-10-15T15:18:45Z</time>
      </trkpt>
      <trkpt lat="48.72008" lon="7.12497">
        <ele>277.6</ele>
        <time>2023-10-15T15:18:51Z</time>
      </trkpt>
      <trkpt lat="48.71997" lon="7.12483">
        <ele>277.5</ele>
        <time>2023-10-15T15:18:56Z</time>
      </trkpt>
      <trkpt lat="48.71981" lon="7.12498">
        <ele>277.9</ele>
        <time>2023-10-15T15:19:02Z</time>
      </trkpt>
      <trkpt lat="48.71966" lon="7.12512">
        <ele>278.2</ele>
        <time>2023-10-15T15:19:09Z</time>
      </trkpt>
      <trkpt lat="48.7196" lon="7.12511">
        <ele>278.2</ele>
        <time>2023-10-15T15:19:10Z</time>
      </trkpt>
      <trkpt lat="48.7195" lon="7.12484">
        <ele>277.7</ele>
        <time>2023-10-15T15:19:17Z</time>
      </trkpt>
      <trkpt lat="48.71947" lon="7.12455">
        <ele>277.1</ele>
        <time>2023-10-15T15:19:23Z</time>
      </trkpt>
      <trkpt lat="48.71943" lon="7.12424">
        <ele>276.2</ele>
        <time>2023-10-15T15:19:30Z</time>
      </trkpt>
      <trkpt lat="48.71938" lon="7.12395">
        <ele>275.5</ele>
        <time>2023-10-15T15:19:36Z</time>
      </trkpt>
      <trkpt lat="48.71934" lon="7.12366">
        <ele>274.9</ele>
        <time>2023-10-15T15:19:42Z</time>
      </trkpt>
      <trkpt lat="48.71929" lon="7.12339">
        <ele>274.3</ele>
        <time>2023-10-15T15:19:48Z</time>
      </trkpt>
      <trkpt lat="48.71925" lon="7.1231">
        <ele>273.8</ele>
        <time>2023-10-15T15:19:54Z</time>
      </trkpt>
      <trkpt lat="48.71921" lon="7.12279">
        <ele>273.2</ele>
        <time>2023-10-15T15:20:00Z</time>
      </trkpt>
      <trkpt lat="48.71919" lon="7.12249">
        <ele>272.7</ele>
        <time>2023-10-15T15:20:06Z</time>
      </trkpt>
      <trkpt lat="48.71919" lon="7.1222">
        <ele>272.2</ele>
        <time>2023-10-15T15:20:12Z</time>
      </trkpt>
      <trkpt lat="48.71918" lon="7.1219">
        <ele>271.7</ele>
        <time>2023-10-15T15:20:18Z</time>
      </trkpt>
      <trkpt lat="48.71918" lon="7.1216">
        <ele>271.3</ele>
        <time>2023-10-15T15:20:24Z</time>
      </trkpt>
      <trkpt lat="48.71916" lon="7.12132">
        <ele>271</ele>
        <time>2023-10-15T15:20:30Z</time>
      </trkpt>
      <trkpt lat="48.71911" lon="7.12103">
        <ele>270.7</ele>
        <time>2023-10-15T15:20:36Z</time>
      </trkpt>
      <trkpt lat="48.71907" lon="7.12074">
        <ele>270.3</ele>
        <time>2023-10-15T15:20:42Z</time>
      </trkpt>
      <trkpt lat="48.71903" lon="7.12046">
        <ele>269.8</ele>
        <time>2023-10-15T15:20:48Z</time>
      </trkpt>
      <trkpt lat="48.71898" lon="7.12019">
        <ele>269.3</ele>
        <time>2023-10-15T15:20:54Z</time>
      </trkpt>
      <trkpt lat="48.71891" lon="7.11993">
        <ele>268.6</ele>
        <time>2023-10-15T15:21:00Z</time>
      </trkpt>
      <trkpt lat="48.71881" lon="7.11967">
        <ele>267.9</ele>
        <time>2023-10-15T15:21:06Z</time>
      </trkpt>
      <trkpt lat="48.71867" lon="7.11946">
        <ele>267.4</ele>
        <time>2023-10-15T15:21:12Z</time>
      </trkpt>
      <trkpt lat="48.7185" lon="7.1193">
        <ele>267.1</ele>
        <time>2023-10-15T15:21:18Z</time>
      </trkpt>
      <trkpt lat="48.71835" lon="7.11909">
        <ele>266.7</ele>
        <time>2023-10-15T15:21:24Z</time>
      </trkpt>
      <trkpt lat="48.71825" lon="7.11897">
        <ele>266.7</ele>
        <time>2023-10-15T15:21:29Z</time>
      </trkpt>
      <trkpt lat="48.71806" lon="7.11905">
        <ele>266.8</ele>
        <time>2023-10-15T15:21:37Z</time>
      </trkpt>
      <trkpt lat="48.71787" lon="7.11903">
        <ele>266.6</ele>
        <time>2023-10-15T15:21:45Z</time>
      </trkpt>
      <trkpt lat="48.71768" lon="7.11903">
        <ele>266.1</ele>
        <time>2023-10-15T15:21:52Z</time>
      </trkpt>
      <trkpt lat="48.71748" lon="7.11899">
        <ele>265.8</ele>
        <time>2023-10-15T15:21:58Z</time>
      </trkpt>
      <trkpt lat="48.71729" lon="7.11894">
        <ele>265.4</ele>
        <time>2023-10-15T15:22:04Z</time>
      </trkpt>
      <trkpt lat="48.71711" lon="7.11885">
        <ele>265.3</ele>
        <time>2023-10-15T15:22:10Z</time>
      </trkpt>
      <trkpt lat="48.71691" lon="7.11879">
        <ele>266.6</ele>
        <time>2023-10-15T15:22:17Z</time>
      </trkpt>
      <trkpt lat="48.7167" lon="7.11876">
        <ele>268.1</ele>
        <time>2023-10-15T15:22:24Z</time>
      </trkpt>
      <trkpt lat="48.7165" lon="7.11873">
        <ele>268.6</ele>
        <time>2023-10-15T15:22:31Z</time>
      </trkpt>
      <trkpt lat="48.71629" lon="7.1187">
        <ele>268.9</ele>
        <time>2023-10-15T15:22:38Z</time>
      </trkpt>
      <trkpt lat="48.71609" lon="7.11867">
        <ele>268.8</ele>
        <time>2023-10-15T15:22:45Z</time>
      </trkpt>
      <trkpt lat="48.71591" lon="7.11865">
        <ele>269.5</ele>
        <time>2023-10-15T15:22:52Z</time>
      </trkpt>
      <trkpt lat="48.71572" lon="7.11863">
        <ele>271.3</ele>
        <time>2023-10-15T15:22:59Z</time>
      </trkpt>
      <trkpt lat="48.71553" lon="7.11861">
        <ele>273.1</ele>
        <time>2023-10-15T15:23:06Z</time>
      </trkpt>
      <trkpt lat="48.71533" lon="7.1186">
        <ele>275.1</ele>
        <time>2023-10-15T15:23:13Z</time>
      </trkpt>
      <trkpt lat="48.71514" lon="7.1186">
        <ele>276.5</ele>
        <time>2023-10-15T15:23:21Z</time>
      </trkpt>
      <trkpt lat="48.71494" lon="7.1186">
        <ele>277.4</ele>
        <time>2023-10-15T15:23:29Z</time>
      </trkpt>
      <trkpt lat="48.71475" lon="7.11863">
        <ele>277.8</ele>
        <time>2023-10-15T15:23:35Z</time>
      </trkpt>
      <trkpt lat="48.71457" lon="7.11871">
        <ele>278.7</ele>
        <time>2023-10-15T15:23:41Z</time>
      </trkpt>
      <trkpt lat="48.7144" lon="7.11883">
        <ele>279.8</ele>
        <time>2023-10-15T15:23:47Z</time>
      </trkpt>
      <trkpt lat="48.71421" lon="7.11895">
        <ele>280.1</ele>
        <time>2023-10-15T15:23:53Z</time>
      </trkpt>
      <trkpt lat="48.71404" lon="7.11907">
        <ele>280.4</ele>
        <time>2023-10-15T15:23:59Z</time>
      </trkpt>
      <trkpt lat="48.71386" lon="7.11914">
        <ele>280.7</ele>
        <time>2023-10-15T15:24:05Z</time>
      </trkpt>
      <trkpt lat="48.71367" lon="7.11919">
        <ele>281</ele>
        <time>2023-10-15T15:24:11Z</time>
      </trkpt>
      <trkpt lat="48.71349" lon="7.11924">
        <ele>281.2</ele>
        <time>2023-10-15T15:24:17Z</time>
      </trkpt>
      <trkpt lat="48.7133" lon="7.11928">
        <ele>281.4</ele>
        <time>2023-10-15T15:24:24Z</time>
      </trkpt>
      <trkpt lat="48.71309" lon="7.1193">
        <ele>281.7</ele>
        <time>2023-10-15T15:24:32Z</time>
      </trkpt>
      <trkpt lat="48.71291" lon="7.11935">
        <ele>282</ele>
        <time>2023-10-15T15:24:39Z</time>
      </trkpt>
      <trkpt lat="48.71272" lon="7.1194">
        <ele>282.4</ele>
        <time>2023-10-15T15:24:46Z</time>
      </trkpt>
      <trkpt lat="48.71252" lon="7.11942">
        <ele>282.7</ele>
        <time>2023-10-15T15:24:52Z</time>
      </trkpt>
      <trkpt lat="48.71231" lon="7.11943">
        <ele>283.1</ele>
        <time>2023-10-15T15:24:59Z</time>
      </trkpt>
      <trkpt lat="48.71212" lon="7.11932">
        <ele>283.4</ele>
        <time>2023-10-15T15:25:05Z</time>
      </trkpt>
      <trkpt lat="48.71206" lon="7.11929">
        <ele>283.5</ele>
        <time>2023-10-15T15:25:06Z</time>
      </trkpt>
      <trkpt lat="48.71189" lon="7.11936">
        <ele>283.7</ele>
        <time>2023-10-15T15:25:15Z</time>
      </trkpt>
      <trkpt lat="48.7117" lon="7.11947">
        <ele>284</ele>
        <time>2023-10-15T15:25:23Z</time>
      </trkpt>
      <trkpt lat="48.71154" lon="7.11965">
        <ele>284.8</ele>
        <time>2023-10-15T15:25:34Z</time>
      </trkpt>
      <trkpt lat="48.71141" lon="7.11983">
        <ele>285.6</ele>
        <time>2023-10-15T15:25:42Z</time>
      </trkpt>
      <trkpt lat="48.71124" lon="7.11998">
        <ele>286.4</ele>
        <time>2023-10-15T15:25:49Z</time>
      </trkpt>
      <trkpt lat="48.71108" lon="7.12017">
        <ele>287.3</ele>
        <time>2023-10-15T15:25:56Z</time>
      </trkpt>
      <trkpt lat="48.71092" lon="7.12033">
        <ele>288.3</ele>
        <time>2023-10-15T15:26:02Z</time>
      </trkpt>
      <trkpt lat="48.71079" lon="7.12054">
        <ele>289.4</ele>
        <time>2023-10-15T15:26:10Z</time>
      </trkpt>
      <trkpt lat="48.71068" lon="7.12076">
        <ele>290.3</ele>
        <time>2023-10-15T15:26:17Z</time>
      </trkpt>
      <trkpt lat="48.71061" lon="7.12102">
        <ele>291.1</ele>
        <time>2023-10-15T15:26:23Z</time>
      </trkpt>
      <trkpt lat="48.71054" lon="7.12127">
        <ele>291.8</ele>
        <time>2023-10-15T15:26:29Z</time>
      </trkpt>
      <trkpt lat="48.71049" lon="7.12156">
        <ele>292.7</ele>
        <time>2023-10-15T15:26:38Z</time>
      </trkpt>
      <trkpt lat="48.71039" lon="7.12181">
        <ele>295.4</ele>
        <time>2023-10-15T15:26:48Z</time>
      </trkpt>
      <trkpt lat="48.71025" lon="7.12199">
        <ele>297.2</ele>
        <time>2023-10-15T15:26:57Z</time>
      </trkpt>
      <trkpt lat="48.71013" lon="7.12221">
        <ele>299.5</ele>
        <time>2023-10-15T15:27:05Z</time>
      </trkpt>
      <trkpt lat="48.71001" lon="7.12244">
        <ele>301.2</ele>
        <time>2023-10-15T15:27:13Z</time>
      </trkpt>
      <trkpt lat="48.70992" lon="7.12268">
        <ele>303</ele>
        <time>2023-10-15T15:27:20Z</time>
      </trkpt>
      <trkpt lat="48.70986" lon="7.12296">
        <ele>303.4</ele>
        <time>2023-10-15T15:27:31Z</time>
      </trkpt>
      <trkpt lat="48.70983" lon="7.12314">
        <ele>303.3</ele>
        <time>2023-10-15T15:27:38Z</time>
      </trkpt>
      <trkpt lat="48.70963" lon="7.12309">
        <ele>306.2</ele>
        <time>2023-10-15T15:27:47Z</time>
      </trkpt>
      <trkpt lat="48.70943" lon="7.12303">
        <ele>309.7</ele>
        <time>2023-10-15T15:27:54Z</time>
      </trkpt>
      <trkpt lat="48.70932" lon="7.12282">
        <ele>313</ele>
        <time>2023-10-15T15:28:03Z</time>
      </trkpt>
      <trkpt lat="48.70918" lon="7.12267">
        <ele>316.5</ele>
        <time>2023-10-15T15:28:17Z</time>
      </trkpt>
      <trkpt lat="48.70917" lon="7.12268">
        <ele>317.1</ele>
        <time>2023-10-15T15:28:18Z</time>
      </trkpt>
      <trkpt lat="48.70902" lon="7.12286">
        <ele>318.5</ele>
        <time>2023-10-15T15:28:31Z</time>
      </trkpt>
      <trkpt lat="48.70886" lon="7.12301">
        <ele>320.4</ele>
        <time>2023-10-15T15:28:40Z</time>
      </trkpt>
      <trkpt lat="48.7087" lon="7.12315">
        <ele>321.5</ele>
        <time>2023-10-15T15:28:50Z</time>
      </trkpt>
      <trkpt lat="48.70855" lon="7.12333">
        <ele>323.1</ele>
        <time>2023-10-15T15:29:01Z</time>
      </trkpt>
      <trkpt lat="48.70842" lon="7.12356">
        <ele>324</ele>
        <time>2023-10-15T15:29:10Z</time>
      </trkpt>
      <trkpt lat="48.70836" lon="7.12386">
        <ele>324</ele>
        <time>2023-10-15T15:29:17Z</time>
      </trkpt>
      <trkpt lat="48.70828" lon="7.12411">
        <ele>324.1</ele>
        <time>2023-10-15T15:29:23Z</time>
      </trkpt>
      <trkpt lat="48.70815" lon="7.12433">
        <ele>325.2</ele>
        <time>2023-10-15T15:29:31Z</time>
      </trkpt>
      <trkpt lat="48.70803" lon="7.12458">
        <ele>325.8</ele>
        <time>2023-10-15T15:29:38Z</time>
      </trkpt>
      <trkpt lat="48.70793" lon="7.12481">
        <ele>325.7</ele>
        <time>2023-10-15T15:29:43Z</time>
      </trkpt>
      <trkpt lat="48.70782" lon="7.12505">
        <ele>324.9</ele>
        <time>2023-10-15T15:29:49Z</time>
      </trkpt>
      <trkpt lat="48.70775" lon="7.12531">
        <ele>323</ele>
        <time>2023-10-15T15:29:56Z</time>
      </trkpt>
      <trkpt lat="48.70774" lon="7.12533">
        <ele>322.7</ele>
        <time>2023-10-15T15:29:57Z</time>
      </trkpt>
      <trkpt lat="48.7076" lon="7.12552">
        <ele>322.7</ele>
        <time>2023-10-15T15:30:06Z</time>
      </trkpt>
      <trkpt lat="48.70741" lon="7.12565">
        <ele>323.8</ele>
        <time>2023-10-15T15:30:13Z</time>
      </trkpt>
      <trkpt lat="48.70724" lon="7.12582">
        <ele>324.7</ele>
        <time>2023-10-15T15:30:20Z</time>
      </trkpt>
      <trkpt lat="48.70708" lon="7.12602">
        <ele>325.8</ele>
        <time>2023-10-15T15:30:26Z</time>
      </trkpt>
      <trkpt lat="48.70694" lon="7.12624">
        <ele>327.4</ele>
        <time>2023-10-15T15:30:33Z</time>
      </trkpt>
      <trkpt lat="48.70678" lon="7.12639">
        <ele>329</ele>
        <time>2023-10-15T15:30:38Z</time>
      </trkpt>
      <trkpt lat="48.7066" lon="7.12654">
        <ele>330.2</ele>
        <time>2023-10-15T15:30:44Z</time>
      </trkpt>
      <trkpt lat="48.70644" lon="7.12672">
        <ele>331</ele>
        <time>2023-10-15T15:30:51Z</time>
      </trkpt>
      <trkpt lat="48.70631" lon="7.12697">
        <ele>331.5</ele>
        <time>2023-10-15T15:30:58Z</time>
      </trkpt>
      <trkpt lat="48.7062" lon="7.12729">
        <ele>331.5</ele>
        <time>2023-10-15T15:31:04Z</time>
      </trkpt>
      <trkpt lat="48.70606" lon="7.12748">
        <ele>331.4</ele>
        <time>2023-10-15T15:31:08Z</time>
      </trkpt>
      <trkpt lat="48.7059" lon="7.1277">
        <ele>330.3</ele>
        <time>2023-10-15T15:31:14Z</time>
      </trkpt>
      <trkpt lat="48.70576" lon="7.12792">
        <ele>329</ele>
        <time>2023-10-15T15:31:19Z</time>
      </trkpt>
      <trkpt lat="48.70561" lon="7.12815">
        <ele>327.3</ele>
        <time>2023-10-15T15:31:24Z</time>
      </trkpt>
      <trkpt lat="48.70548" lon="7.12836">
        <ele>326.1</ele>
        <time>2023-10-15T15:31:29Z</time>
      </trkpt>
      <trkpt lat="48.70537" lon="7.1286">
        <ele>325</ele>
        <time>2023-10-15T15:31:35Z</time>
      </trkpt>
      <trkpt lat="48.70528" lon="7.12888">
        <ele>324.1</ele>
        <time>2023-10-15T15:31:41Z</time>
      </trkpt>
      <trkpt lat="48.70516" lon="7.12909">
        <ele>323.3</ele>
        <time>2023-10-15T15:31:46Z</time>
      </trkpt>
      <trkpt lat="48.70506" lon="7.12936">
        <ele>322.3</ele>
        <time>2023-10-15T15:31:52Z</time>
      </trkpt>
      <trkpt lat="48.70496" lon="7.12961">
        <ele>321.7</ele>
        <time>2023-10-15T15:31:58Z</time>
      </trkpt>
      <trkpt lat="48.70485" lon="7.12986">
        <ele>321.4</ele>
        <time>2023-10-15T15:32:04Z</time>
      </trkpt>
      <trkpt lat="48.70476" lon="7.13011">
        <ele>321.3</ele>
        <time>2023-10-15T15:32:10Z</time>
      </trkpt>
      <trkpt lat="48.70462" lon="7.13032">
        <ele>321.3</ele>
        <time>2023-10-15T15:32:17Z</time>
      </trkpt>
      <trkpt lat="48.70449" lon="7.13053">
        <ele>321.1</ele>
        <time>2023-10-15T15:32:23Z</time>
      </trkpt>
      <trkpt lat="48.70439" lon="7.13081">
        <ele>321</ele>
        <time>2023-10-15T15:32:30Z</time>
      </trkpt>
      <trkpt lat="48.70427" lon="7.13103">
        <ele>320.7</ele>
        <time>2023-10-15T15:32:37Z</time>
      </trkpt>
      <trkpt lat="48.70414" lon="7.13123">
        <ele>320.5</ele>
        <time>2023-10-15T15:32:43Z</time>
      </trkpt>
      <trkpt lat="48.70405" lon="7.13151">
        <ele>320.8</ele>
        <time>2023-10-15T15:32:51Z</time>
      </trkpt>
      <trkpt lat="48.70398" lon="7.13177">
        <ele>321.1</ele>
        <time>2023-10-15T15:32:58Z</time>
      </trkpt>
      <trkpt lat="48.70389" lon="7.13204">
        <ele>321.4</ele>
        <time>2023-10-15T15:33:07Z</time>
      </trkpt>
      <trkpt lat="48.70372" lon="7.1322">
        <ele>321.7</ele>
        <time>2023-10-15T15:33:18Z</time>
      </trkpt>
      <trkpt lat="48.70356" lon="7.13235">
        <ele>322</ele>
        <time>2023-10-15T15:33:29Z</time>
      </trkpt>
      <trkpt lat="48.70339" lon="7.13247">
        <ele>322.1</ele>
        <time>2023-10-15T15:33:38Z</time>
      </trkpt>
      <trkpt lat="48.7032" lon="7.13255">
        <ele>322.2</ele>
        <time>2023-10-15T15:33:44Z</time>
      </trkpt>
      <trkpt lat="48.70299" lon="7.13263">
        <ele>322.5</ele>
        <time>2023-10-15T15:33:50Z</time>
      </trkpt>
      <trkpt lat="48.70281" lon="7.13268">
        <ele>322.6</ele>
        <time>2023-10-15T15:33:54Z</time>
      </trkpt>
      <trkpt lat="48.7026" lon="7.13274">
        <ele>322.9</ele>
        <time>2023-10-15T15:33:59Z</time>
      </trkpt>
      <trkpt lat="48.70241" lon="7.13278">
        <ele>323.8</ele>
        <time>2023-10-15T15:34:04Z</time>
      </trkpt>
      <trkpt lat="48.70224" lon="7.13293">
        <ele>324.7</ele>
        <time>2023-10-15T15:34:11Z</time>
      </trkpt>
      <trkpt lat="48.70211" lon="7.13313">
        <ele>325.1</ele>
        <time>2023-10-15T15:34:16Z</time>
      </trkpt>
      <trkpt lat="48.70197" lon="7.13334">
        <ele>325.5</ele>
        <time>2023-10-15T15:34:22Z</time>
      </trkpt>
      <trkpt lat="48.70184" lon="7.13358">
        <ele>325.9</ele>
        <time>2023-10-15T15:34:29Z</time>
      </trkpt>
      <trkpt lat="48.70171" lon="7.13381">
        <ele>326.3</ele>
        <time>2023-10-15T15:34:36Z</time>
      </trkpt>
      <trkpt lat="48.70158" lon="7.13404">
        <ele>326.7</ele>
        <time>2023-10-15T15:34:43Z</time>
      </trkpt>
      <trkpt lat="48.70144" lon="7.13426">
        <ele>327.1</ele>
        <time>2023-10-15T15:34:49Z</time>
      </trkpt>
      <trkpt lat="48.70132" lon="7.13447">
        <ele>327.4</ele>
        <time>2023-10-15T15:34:55Z</time>
      </trkpt>
      <trkpt lat="48.70121" lon="7.13468">
        <ele>327.8</ele>
        <time>2023-10-15T15:35:01Z</time>
      </trkpt>
      <trkpt lat="48.70109" lon="7.13492">
        <ele>328.2</ele>
        <time>2023-10-15T15:35:08Z</time>
      </trkpt>
      <trkpt lat="48.70095" lon="7.13515">
        <ele>328.6</ele>
        <time>2023-10-15T15:35:15Z</time>
      </trkpt>
      <trkpt lat="48.70082" lon="7.13538">
        <ele>329</ele>
        <time>2023-10-15T15:35:22Z</time>
      </trkpt>
      <trkpt lat="48.70067" lon="7.13557">
        <ele>329.4</ele>
        <time>2023-10-15T15:35:30Z</time>
      </trkpt>
      <trkpt lat="48.70051" lon="7.13572">
        <ele>329.8</ele>
        <time>2023-10-15T15:35:39Z</time>
      </trkpt>
      <trkpt lat="48.70036" lon="7.13588">
        <ele>330.2</ele>
        <time>2023-10-15T15:35:47Z</time>
      </trkpt>
      <trkpt lat="48.70018" lon="7.13604">
        <ele>330.6</ele>
        <time>2023-10-15T15:35:53Z</time>
      </trkpt>
      <trkpt lat="48.7001" lon="7.1363">
        <ele>330.7</ele>
        <time>2023-10-15T15:36:00Z</time>
      </trkpt>
      <trkpt lat="48.70017" lon="7.13659">
        <ele>330</ele>
        <time>2023-10-15T15:36:07Z</time>
      </trkpt>
      <trkpt lat="48.70024" lon="7.13687">
        <ele>329.3</ele>
        <time>2023-10-15T15:36:14Z</time>
      </trkpt>
      <trkpt lat="48.7003" lon="7.13716">
        <ele>328.7</ele>
        <time>2023-10-15T15:36:21Z</time>
      </trkpt>
      <trkpt lat="48.70023" lon="7.13743">
        <ele>328.6</ele>
        <time>2023-10-15T15:36:28Z</time>
      </trkpt>
      <trkpt lat="48.70017" lon="7.13771">
        <ele>328.4</ele>
        <time>2023-10-15T15:36:34Z</time>
      </trkpt>
      <trkpt lat="48.70016" lon="7.13798">
        <ele>328.8</ele>
        <time>2023-10-15T15:36:41Z</time>
      </trkpt>
      <trkpt lat="48.70012" lon="7.13811">
        <ele>329.4</ele>
        <time>2023-10-15T15:36:45Z</time>
      </trkpt>
      <trkpt lat="48.7001" lon="7.13814">
        <ele>329.6</ele>
        <time>2023-10-15T15:36:56Z</time>
      </trkpt>
      <trkpt lat="48.70009" lon="7.13815">
        <ele>329.6</ele>
        <time>2023-10-15T15:36:57Z</time>
      </trkpt>
      <trkpt lat="48.69998" lon="7.13841">
        <ele>330.8</ele>
        <time>2023-10-15T15:37:04Z</time>
      </trkpt>
      <trkpt lat="48.70001" lon="7.1387">
        <ele>331.2</ele>
        <time>2023-10-15T15:37:10Z</time>
      </trkpt>
      <trkpt lat="48.70008" lon="7.13897">
        <ele>331.2</ele>
        <time>2023-10-15T15:37:16Z</time>
      </trkpt>
      <trkpt lat="48.70013" lon="7.13926">
        <ele>331.6</ele>
        <time>2023-10-15T15:37:24Z</time>
      </trkpt>
      <trkpt lat="48.70016" lon="7.13953">
        <ele>332.7</ele>
        <time>2023-10-15T15:37:31Z</time>
      </trkpt>
      <trkpt lat="48.70024" lon="7.13981">
        <ele>333.1</ele>
        <time>2023-10-15T15:37:39Z</time>
      </trkpt>
      <trkpt lat="48.70026" lon="7.14007">
        <ele>333.6</ele>
        <time>2023-10-15T15:37:47Z</time>
      </trkpt>
      <trkpt lat="48.70022" lon="7.14036">
        <ele>334.6</ele>
        <time>2023-10-15T15:37:55Z</time>
      </trkpt>
      <trkpt lat="48.70017" lon="7.14064">
        <ele>335.4</ele>
        <time>2023-10-15T15:38:03Z</time>
      </trkpt>
      <trkpt lat="48.70013" lon="7.14092">
        <ele>335.9</ele>
        <time>2023-10-15T15:38:10Z</time>
      </trkpt>
      <trkpt lat="48.70009" lon="7.1412">
        <ele>336</ele>
        <time>2023-10-15T15:38:16Z</time>
      </trkpt>
      <trkpt lat="48.70005" lon="7.14148">
        <ele>336.1</ele>
        <time>2023-10-15T15:38:22Z</time>
      </trkpt>
      <trkpt lat="48.70001" lon="7.14176">
        <ele>336.9</ele>
        <time>2023-10-15T15:38:30Z</time>
      </trkpt>
      <trkpt lat="48.69999" lon="7.14205">
        <ele>337.9</ele>
        <time>2023-10-15T15:38:37Z</time>
      </trkpt>
      <trkpt lat="48.69993" lon="7.1423">
        <ele>338.7</ele>
        <time>2023-10-15T15:38:44Z</time>
      </trkpt>
      <trkpt lat="48.69978" lon="7.14249">
        <ele>339.5</ele>
        <time>2023-10-15T15:38:52Z</time>
      </trkpt>
      <trkpt lat="48.6996" lon="7.1425">
        <ele>340</ele>
        <time>2023-10-15T15:38:59Z</time>
      </trkpt>
      <trkpt lat="48.69941" lon="7.14256">
        <ele>340.6</ele>
        <time>2023-10-15T15:39:08Z</time>
      </trkpt>
      <trkpt lat="48.69922" lon="7.14259">
        <ele>341.7</ele>
        <time>2023-10-15T15:39:16Z</time>
      </trkpt>
      <trkpt lat="48.69902" lon="7.14265">
        <ele>342.8</ele>
        <time>2023-10-15T15:39:25Z</time>
      </trkpt>
      <trkpt lat="48.69883" lon="7.14258">
        <ele>343.5</ele>
        <time>2023-10-15T15:39:32Z</time>
      </trkpt>
      <trkpt lat="48.69866" lon="7.14255">
        <ele>344.2</ele>
        <time>2023-10-15T15:39:39Z</time>
      </trkpt>
      <trkpt lat="48.69867" lon="7.14283">
        <ele>343.8</ele>
        <time>2023-10-15T15:39:47Z</time>
      </trkpt>
      <trkpt lat="48.69864" lon="7.14313">
        <ele>343</ele>
        <time>2023-10-15T15:39:53Z</time>
      </trkpt>
      <trkpt lat="48.69862" lon="7.14325">
        <ele>342.8</ele>
        <time>2023-10-15T15:39:58Z</time>
      </trkpt>
      <trkpt lat="48.6986" lon="7.14331">
        <ele>342.5</ele>
        <time>2023-10-15T15:40:02Z</time>
      </trkpt>
      <trkpt lat="48.6986" lon="7.14343">
        <ele>342</ele>
        <time>2023-10-15T15:40:13Z</time>
      </trkpt>
      <trkpt lat="48.6987" lon="7.14371">
        <ele>340.6</ele>
        <time>2023-10-15T15:40:21Z</time>
      </trkpt>
      <trkpt lat="48.69881" lon="7.14396">
        <ele>339.9</ele>
        <time>2023-10-15T15:40:29Z</time>
      </trkpt>
      <trkpt lat="48.69891" lon="7.14419">
        <ele>339.7</ele>
        <time>2023-10-15T15:40:36Z</time>
      </trkpt>
      <trkpt lat="48.69902" lon="7.14441">
        <ele>340.1</ele>
        <time>2023-10-15T15:40:42Z</time>
      </trkpt>
      <trkpt lat="48.69913" lon="7.14466">
        <ele>341.4</ele>
        <time>2023-10-15T15:40:49Z</time>
      </trkpt>
      <trkpt lat="48.69926" lon="7.1449">
        <ele>342.3</ele>
        <time>2023-10-15T15:40:57Z</time>
      </trkpt>
      <trkpt lat="48.69937" lon="7.14513">
        <ele>342.7</ele>
        <time>2023-10-15T15:41:04Z</time>
      </trkpt>
      <trkpt lat="48.69949" lon="7.14536">
        <ele>343.2</ele>
        <time>2023-10-15T15:41:11Z</time>
      </trkpt>
      <trkpt lat="48.69961" lon="7.1456">
        <ele>343.5</ele>
        <time>2023-10-15T15:41:19Z</time>
      </trkpt>
      <trkpt lat="48.69966" lon="7.14565">
        <ele>343.7</ele>
        <time>2023-10-15T15:41:22Z</time>
      </trkpt>
      <trkpt lat="48.69983" lon="7.14558">
        <ele>344.3</ele>
        <time>2023-10-15T15:41:30Z</time>
      </trkpt>
      <trkpt lat="48.70002" lon="7.14561">
        <ele>344.1</ele>
        <time>2023-10-15T15:41:37Z</time>
      </trkpt>
      <trkpt lat="48.7002" lon="7.14567">
        <ele>343.5</ele>
        <time>2023-10-15T15:41:45Z</time>
      </trkpt>
      <trkpt lat="48.70018" lon="7.14597">
        <ele>343.8</ele>
        <time>2023-10-15T15:41:55Z</time>
      </trkpt>
      <trkpt lat="48.70019" lon="7.14628">
        <ele>344.8</ele>
        <time>2023-10-15T15:42:03Z</time>
      </trkpt>
      <trkpt lat="48.70029" lon="7.14653">
        <ele>344.3</ele>
        <time>2023-10-15T15:42:11Z</time>
      </trkpt>
      <trkpt lat="48.70039" lon="7.14677">
        <ele>344.7</ele>
        <time>2023-10-15T15:42:18Z</time>
      </trkpt>
      <trkpt lat="48.70052" lon="7.14699">
        <ele>345.3</ele>
        <time>2023-10-15T15:42:25Z</time>
      </trkpt>
      <trkpt lat="48.70062" lon="7.14724">
        <ele>346.4</ele>
        <time>2023-10-15T15:42:32Z</time>
      </trkpt>
      <trkpt lat="48.70077" lon="7.14734">
        <ele>347.3</ele>
        <time>2023-10-15T15:42:40Z</time>
      </trkpt>
      <trkpt lat="48.70093" lon="7.14717">
        <ele>346.4</ele>
        <time>2023-10-15T15:42:47Z</time>
      </trkpt>
      <trkpt lat="48.70102" lon="7.14707">
        <ele>345.5</ele>
        <time>2023-10-15T15:42:53Z</time>
      </trkpt>
      <trkpt lat="48.70108" lon="7.14732">
        <ele>346.8</ele>
        <time>2023-10-15T15:43:00Z</time>
      </trkpt>
      <trkpt lat="48.70115" lon="7.14758">
        <ele>347.8</ele>
        <time>2023-10-15T15:43:06Z</time>
      </trkpt>
      <trkpt lat="48.70124" lon="7.14785">
        <ele>348.6</ele>
        <time>2023-10-15T15:43:14Z</time>
      </trkpt>
      <trkpt lat="48.70132" lon="7.14814">
        <ele>349.6</ele>
        <time>2023-10-15T15:43:22Z</time>
      </trkpt>
      <trkpt lat="48.70139" lon="7.1484">
        <ele>350.7</ele>
        <time>2023-10-15T15:43:28Z</time>
      </trkpt>
      <trkpt lat="48.70145" lon="7.14868">
        <ele>351.4</ele>
        <time>2023-10-15T15:43:36Z</time>
      </trkpt>
      <trkpt lat="48.70151" lon="7.14895">
        <ele>351.9</ele>
        <time>2023-10-15T15:43:44Z</time>
      </trkpt>
      <trkpt lat="48.70155" lon="7.14922">
        <ele>352.7</ele>
        <time>2023-10-15T15:43:50Z</time>
      </trkpt>
      <trkpt lat="48.70164" lon="7.14948">
        <ele>353.8</ele>
        <time>2023-10-15T15:43:56Z</time>
      </trkpt>
      <trkpt lat="48.7017" lon="7.14976">
        <ele>354.6</ele>
        <time>2023-10-15T15:44:03Z</time>
      </trkpt>
      <trkpt lat="48.70179" lon="7.15001">
        <ele>355.3</ele>
        <time>2023-10-15T15:44:13Z</time>
      </trkpt>
      <trkpt lat="48.70194" lon="7.15019">
        <ele>356</ele>
        <time>2023-10-15T15:44:20Z</time>
      </trkpt>
      <trkpt lat="48.70209" lon="7.15036">
        <ele>356.7</ele>
        <time>2023-10-15T15:44:27Z</time>
      </trkpt>
      <trkpt lat="48.70222" lon="7.15055">
        <ele>357.2</ele>
        <time>2023-10-15T15:44:35Z</time>
      </trkpt>
      <trkpt lat="48.70239" lon="7.15072">
        <ele>357.5</ele>
        <time>2023-10-15T15:44:45Z</time>
      </trkpt>
      <trkpt lat="48.70251" lon="7.15097">
        <ele>357.9</ele>
        <time>2023-10-15T15:44:51Z</time>
      </trkpt>
      <trkpt lat="48.70265" lon="7.1512">
        <ele>358.3</ele>
        <time>2023-10-15T15:44:57Z</time>
      </trkpt>
      <trkpt lat="48.70278" lon="7.15143">
        <ele>358.5</ele>
        <time>2023-10-15T15:45:03Z</time>
      </trkpt>
      <trkpt lat="48.70288" lon="7.15166">
        <ele>358.8</ele>
        <time>2023-10-15T15:45:10Z</time>
      </trkpt>
      <trkpt lat="48.70305" lon="7.15184">
        <ele>359.1</ele>
        <time>2023-10-15T15:45:19Z</time>
      </trkpt>
      <trkpt lat="48.70322" lon="7.152">
        <ele>359.4</ele>
        <time>2023-10-15T15:45:25Z</time>
      </trkpt>
      <trkpt lat="48.70338" lon="7.15216">
        <ele>359.7</ele>
        <time>2023-10-15T15:45:32Z</time>
      </trkpt>
      <trkpt lat="48.70356" lon="7.15208">
        <ele>359.7</ele>
        <time>2023-10-15T15:45:39Z</time>
      </trkpt>
      <trkpt lat="48.70361" lon="7.15206">
        <ele>359.7</ele>
        <time>2023-10-15T15:45:41Z</time>
      </trkpt>
      <trkpt lat="48.70362" lon="7.15219">
        <ele>359.7</ele>
        <time>2023-10-15T15:45:45Z</time>
      </trkpt>
      <trkpt lat="48.70349" lon="7.1524">
        <ele>359.6</ele>
        <time>2023-10-15T15:45:51Z</time>
      </trkpt>
      <trkpt lat="48.7033" lon="7.15238">
        <ele>359.5</ele>
        <time>2023-10-15T15:45:58Z</time>
      </trkpt>
      <trkpt lat="48.70314" lon="7.15221">
        <ele>359.3</ele>
        <time>2023-10-15T15:46:05Z</time>
      </trkpt>
      <trkpt lat="48.70295" lon="7.15217">
        <ele>359.2</ele>
        <time>2023-10-15T15:46:12Z</time>
      </trkpt>
      <trkpt lat="48.70278" lon="7.15227">
        <ele>359.3</ele>
        <time>2023-10-15T15:46:19Z</time>
      </trkpt>
      <trkpt lat="48.70263" lon="7.15242">
        <ele>359.5</ele>
        <time>2023-10-15T15:46:25Z</time>
      </trkpt>
      <trkpt lat="48.70249" lon="7.15263">
        <ele>359.6</ele>
        <time>2023-10-15T15:46:31Z</time>
      </trkpt>
      <trkpt lat="48.70235" lon="7.15285">
        <ele>359.9</ele>
        <time>2023-10-15T15:46:37Z</time>
      </trkpt>
      <trkpt lat="48.70223" lon="7.15306">
        <ele>360.4</ele>
        <time>2023-10-15T15:46:43Z</time>
      </trkpt>
      <trkpt lat="48.70211" lon="7.15328">
        <ele>361.1</ele>
        <time>2023-10-15T15:46:49Z</time>
      </trkpt>
      <trkpt lat="48.7021" lon="7.15359">
        <ele>361.8</ele>
        <time>2023-10-15T15:46:56Z</time>
      </trkpt>
      <trkpt lat="48.70215" lon="7.15385">
        <ele>362.6</ele>
        <time>2023-10-15T15:47:02Z</time>
      </trkpt>
      <trkpt lat="48.7022" lon="7.15416">
        <ele>363.1</ele>
        <time>2023-10-15T15:47:09Z</time>
      </trkpt>
      <trkpt lat="48.70222" lon="7.15443">
        <ele>363</ele>
        <time>2023-10-15T15:47:15Z</time>
      </trkpt>
      <trkpt lat="48.70225" lon="7.1547">
        <ele>362.8</ele>
        <time>2023-10-15T15:47:21Z</time>
      </trkpt>
      <trkpt lat="48.70227" lon="7.15492">
        <ele>362.5</ele>
        <time>2023-10-15T15:47:26Z</time>
      </trkpt>
      <trkpt lat="48.70227" lon="7.155">
        <ele>362.3</ele>
        <time>2023-10-15T15:48:03Z</time>
      </trkpt>
      <trkpt lat="48.70228" lon="7.1553">
        <ele>361.5</ele>
        <time>2023-10-15T15:48:10Z</time>
      </trkpt>
      <trkpt lat="48.70229" lon="7.1556">
        <ele>360.5</ele>
        <time>2023-10-15T15:48:16Z</time>
      </trkpt>
      <trkpt lat="48.70228" lon="7.1559">
        <ele>359.3</ele>
        <time>2023-10-15T15:48:22Z</time>
      </trkpt>
      <trkpt lat="48.70226" lon="7.15621">
        <ele>357.8</ele>
        <time>2023-10-15T15:48:28Z</time>
      </trkpt>
      <trkpt lat="48.70223" lon="7.15651">
        <ele>356.4</ele>
        <time>2023-10-15T15:48:34Z</time>
      </trkpt>
      <trkpt lat="48.70223" lon="7.15681">
        <ele>354.9</ele>
        <time>2023-10-15T15:48:40Z</time>
      </trkpt>
      <trkpt lat="48.70225" lon="7.15713">
        <ele>353.5</ele>
        <time>2023-10-15T15:48:46Z</time>
      </trkpt>
      <trkpt lat="48.70224" lon="7.15743">
        <ele>352.4</ele>
        <time>2023-10-15T15:48:52Z</time>
      </trkpt>
      <trkpt lat="48.70225" lon="7.15772">
        <ele>351.5</ele>
        <time>2023-10-15T15:48:58Z</time>
      </trkpt>
      <trkpt lat="48.70226" lon="7.15802">
        <ele>350.8</ele>
        <time>2023-10-15T15:49:04Z</time>
      </trkpt>
      <trkpt lat="48.70225" lon="7.15831">
        <ele>350.8</ele>
        <time>2023-10-15T15:49:10Z</time>
      </trkpt>
      <trkpt lat="48.70222" lon="7.1586">
        <ele>350.8</ele>
        <time>2023-10-15T15:49:16Z</time>
      </trkpt>
      <trkpt lat="48.70221" lon="7.15889">
        <ele>351</ele>
        <time>2023-10-15T15:49:22Z</time>
      </trkpt>
      <trkpt lat="48.7022" lon="7.15917">
        <ele>351.3</ele>
        <time>2023-10-15T15:49:28Z</time>
      </trkpt>
      <trkpt lat="48.7022" lon="7.15946">
        <ele>351.6</ele>
        <time>2023-10-15T15:49:34Z</time>
      </trkpt>
      <trkpt lat="48.7022" lon="7.15973">
        <ele>351.9</ele>
        <time>2023-10-15T15:49:40Z</time>
      </trkpt>
      <trkpt lat="48.7022" lon="7.16001">
        <ele>352.4</ele>
        <time>2023-10-15T15:49:46Z</time>
      </trkpt>
      <trkpt lat="48.70221" lon="7.16031">
        <ele>352.9</ele>
        <time>2023-10-15T15:49:53Z</time>
      </trkpt>
      <trkpt lat="48.70238" lon="7.1604">
        <ele>352</ele>
        <time>2023-10-15T15:50:00Z</time>
      </trkpt>
      <trkpt lat="48.70258" lon="7.16037">
        <ele>350.9</ele>
        <time>2023-10-15T15:50:07Z</time>
      </trkpt>
      <trkpt lat="48.70277" lon="7.16034">
        <ele>349.9</ele>
        <time>2023-10-15T15:50:13Z</time>
      </trkpt>
      <trkpt lat="48.70295" lon="7.16031">
        <ele>348.9</ele>
        <time>2023-10-15T15:50:19Z</time>
      </trkpt>
      <trkpt lat="48.70315" lon="7.1603">
        <ele>347.7</ele>
        <time>2023-10-15T15:50:25Z</time>
      </trkpt>
      <trkpt lat="48.70336" lon="7.16031">
        <ele>346.4</ele>
        <time>2023-10-15T15:50:31Z</time>
      </trkpt>
      <trkpt lat="48.70357" lon="7.16031">
        <ele>344.9</ele>
        <time>2023-10-15T15:50:37Z</time>
      </trkpt>
      <trkpt lat="48.70375" lon="7.16032">
        <ele>343.6</ele>
        <time>2023-10-15T15:50:43Z</time>
      </trkpt>
      <trkpt lat="48.70397" lon="7.16034">
        <ele>342.3</ele>
        <time>2023-10-15T15:50:49Z</time>
      </trkpt>
      <trkpt lat="48.70416" lon="7.16036">
        <ele>341.2</ele>
        <time>2023-10-15T15:50:54Z</time>
      </trkpt>
      <trkpt lat="48.70437" lon="7.16041">
        <ele>340.1</ele>
        <time>2023-10-15T15:50:59Z</time>
      </trkpt>
      <trkpt lat="48.70456" lon="7.16049">
        <ele>339.4</ele>
        <time>2023-10-15T15:51:04Z</time>
      </trkpt>
      <trkpt lat="48.70474" lon="7.16059">
        <ele>339</ele>
        <time>2023-10-15T15:51:09Z</time>
      </trkpt>
      <trkpt lat="48.70491" lon="7.16069">
        <ele>338.7</ele>
        <time>2023-10-15T15:51:14Z</time>
      </trkpt>
      <trkpt lat="48.70511" lon="7.1608">
        <ele>338.7</ele>
        <time>2023-10-15T15:51:20Z</time>
      </trkpt>
      <trkpt lat="48.70529" lon="7.16086">
        <ele>338.7</ele>
        <time>2023-10-15T15:51:26Z</time>
      </trkpt>
      <trkpt lat="48.70547" lon="7.16091">
        <ele>338.5</ele>
        <time>2023-10-15T15:51:32Z</time>
      </trkpt>
      <trkpt lat="48.70568" lon="7.16096">
        <ele>337.9</ele>
        <time>2023-10-15T15:51:39Z</time>
      </trkpt>
      <trkpt lat="48.70587" lon="7.16097">
        <ele>337.2</ele>
        <time>2023-10-15T15:51:45Z</time>
      </trkpt>
      <trkpt lat="48.70605" lon="7.16094">
        <ele>336.4</ele>
        <time>2023-10-15T15:51:51Z</time>
      </trkpt>
      <trkpt lat="48.70625" lon="7.16093">
        <ele>335.5</ele>
        <time>2023-10-15T15:51:57Z</time>
      </trkpt>
      <trkpt lat="48.70645" lon="7.16091">
        <ele>334.4</ele>
        <time>2023-10-15T15:52:03Z</time>
      </trkpt>
      <trkpt lat="48.70666" lon="7.1609">
        <ele>333.3</ele>
        <time>2023-10-15T15:52:09Z</time>
      </trkpt>
      <trkpt lat="48.70686" lon="7.16092">
        <ele>332.1</ele>
        <time>2023-10-15T15:52:15Z</time>
      </trkpt>
      <trkpt lat="48.70707" lon="7.16093">
        <ele>331</ele>
        <time>2023-10-15T15:52:21Z</time>
      </trkpt>
      <trkpt lat="48.70727" lon="7.16094">
        <ele>330</ele>
        <time>2023-10-15T15:52:26Z</time>
      </trkpt>
      <trkpt lat="48.70747" lon="7.16097">
        <ele>329</ele>
        <time>2023-10-15T15:52:31Z</time>
      </trkpt>
      <trkpt lat="48.70765" lon="7.16101">
        <ele>328.2</ele>
        <time>2023-10-15T15:52:36Z</time>
      </trkpt>
      <trkpt lat="48.70783" lon="7.16105">
        <ele>327.3</ele>
        <time>2023-10-15T15:52:41Z</time>
      </trkpt>
      <trkpt lat="48.70802" lon="7.1611">
        <ele>326.4</ele>
        <time>2023-10-15T15:52:46Z</time>
      </trkpt>
      <trkpt lat="48.70819" lon="7.16117">
        <ele>325.6</ele>
        <time>2023-10-15T15:52:51Z</time>
      </trkpt>
      <trkpt lat="48.7084" lon="7.16122">
        <ele>324.7</ele>
        <time>2023-10-15T15:52:57Z</time>
      </trkpt>
      <trkpt lat="48.70861" lon="7.16127">
        <ele>323.8</ele>
        <time>2023-10-15T15:53:03Z</time>
      </trkpt>
      <trkpt lat="48.70882" lon="7.16131">
        <ele>323</ele>
        <time>2023-10-15T15:53:09Z</time>
      </trkpt>
      <trkpt lat="48.70902" lon="7.16135">
        <ele>322.3</ele>
        <time>2023-10-15T15:53:15Z</time>
      </trkpt>
      <trkpt lat="48.70919" lon="7.16139">
        <ele>321.7</ele>
        <time>2023-10-15T15:53:20Z</time>
      </trkpt>
      <trkpt lat="48.70941" lon="7.16143">
        <ele>320.9</ele>
        <time>2023-10-15T15:53:26Z</time>
      </trkpt>
      <trkpt lat="48.70961" lon="7.16147">
        <ele>320.2</ele>
        <time>2023-10-15T15:53:32Z</time>
      </trkpt>
      <trkpt lat="48.70982" lon="7.16151">
        <ele>319.5</ele>
        <time>2023-10-15T15:53:38Z</time>
      </trkpt>
      <trkpt lat="48.71002" lon="7.16158">
        <ele>319</ele>
        <time>2023-10-15T15:53:44Z</time>
      </trkpt>
      <trkpt lat="48.71022" lon="7.16164">
        <ele>318.7</ele>
        <time>2023-10-15T15:53:50Z</time>
      </trkpt>
      <trkpt lat="48.71042" lon="7.16169">
        <ele>318.6</ele>
        <time>2023-10-15T15:53:56Z</time>
      </trkpt>
      <trkpt lat="48.71062" lon="7.16176">
        <ele>318.5</ele>
        <time>2023-10-15T15:54:02Z</time>
      </trkpt>
      <trkpt lat="48.71081" lon="7.16189">
        <ele>318.4</ele>
        <time>2023-10-15T15:54:08Z</time>
      </trkpt>
      <trkpt lat="48.71095" lon="7.16208">
        <ele>318.2</ele>
        <time>2023-10-15T15:54:14Z</time>
      </trkpt>
      <trkpt lat="48.71112" lon="7.16226">
        <ele>318</ele>
        <time>2023-10-15T15:54:21Z</time>
      </trkpt>
      <trkpt lat="48.71126" lon="7.16243">
        <ele>317.7</ele>
        <time>2023-10-15T15:54:27Z</time>
      </trkpt>
      <trkpt lat="48.7114" lon="7.16262">
        <ele>317.2</ele>
        <time>2023-10-15T15:54:34Z</time>
      </trkpt>
      <trkpt lat="48.71147" lon="7.16267">
        <ele>316.8</ele>
        <time>2023-10-15T15:54:37Z</time>
      </trkpt>
    </trkseg>
  </trk>
</gpx>